• Join FlightAware (Why Join?)
  • Login
  • US Flag 
12:25AM EST


 

Airport Tracker/Info


-or-


 

Live Flight TrackerFlight Track Log ✈ RPA3228 ✈ 06-Jul-2013 ✈ KBNA - KDCA

Flight Track Log - Related Links

Times and Time Zones

All times are in EDT time to prevent confusion due to time zone crossing. See the RPA3228 flight status page for this flight to view local times or setup timezone preferences in your user account.

Time Position Orientation Groundspeed Altitude Reporting Facility
EDT Latitude Longitude Course Direction KTS MPH feet Rate Location/Type
07:30AM 36.1333 -86.6833 64° Northeast 156 180 1,100  Level Nashville TRACON
07:31AM 36.1667 -86.7333 310° West 220 253 4,100 2,700 Climbing Nashville TRACON
07:32AM 36.1633 -86.2836 76° East  Level FlightAware Approximate
07:32AM 36.1906 -86.7128 35° Northeast 271 312 5,800  Level Memphis Center
07:33AM 36.1871 -86.1572 80° East  Level FlightAware Approximate
07:33AM 36.1897 -86.6178 91° East 286 329 9,000  Level Memphis Center
07:34AM 36.2136 -86.0328 64° Northeast  Level FlightAware Approximate
07:34AM 36.1908 -86.5150 89° East 291 335 11,900  Level Memphis Center
07:35AM 36.2601 -85.9165 64° Northeast  Level FlightAware Approximate
07:35AM 36.1933 -86.3992 88° East 319 367 14,500  Level Memphis Center
07:36AM 36.1936 -86.2808 90° East 341 392 17,200 2,640 Climbing Memphis Center
07:37AM 36.1978 -86.1519 88° East 361 415 19,800 2,340 Climbing Memphis Center
07:38AM 36.2128 -86.0406 80° East 366 421 21,900 2,160 Climbing Memphis Center
07:39AM 36.2689 -85.9167 61° Northeast 387 445 24,200 2,220 Climbing Memphis Center
07:39AM 36.3042 -85.8369 61° Northeast 415 478 25,500 1,800 Climbing Indianapolis Center
07:40AM 36.3711 -85.6953 60° Northeast 432 497 27,200 1,680 Climbing Indianapolis Center
07:41AM 36.4344 -85.5600 60° Northeast 448 516 29,000 1,860 Climbing Indianapolis Center
07:42AM 36.4994 -85.4242 59° Northeast 453 521 31,000 1,560 Climbing Indianapolis Center
07:43AM 36.5500 -85.2778 67° East 457 526 32,300 960 Climbing Indianapolis Center
07:44AM 36.5972 -85.1275 69° East 464 534 33,000 300 Climbing Indianapolis Center
07:45AM 36.6489 -84.9664 68° East 492 566 33,000  Level Indianapolis Center
07:46AM 36.6978 -84.8056 69° East 496 571 33,000  Level Indianapolis Center
07:47AM 36.7481 -84.6447 69° East 496 571 33,000  Level Indianapolis Center
07:48AM 36.7994 -84.4822 68° East 496 571 33,000  Level Indianapolis Center
07:49AM 36.8483 -84.3203 69° East 500 575 33,000  Level Indianapolis Center
07:50AM 36.8981 -84.1594 69° East 495 570 33,000  Level Indianapolis Center
07:51AM 36.9467 -84.0006 69° East 489 563 33,000  Level Indianapolis Center
07:52AM 36.9956 -83.8406 69° East 491 565 33,000  Level Indianapolis Center
07:53AM 37.0442 -83.6811 69° East 490 564 33,000  Level Indianapolis Center
07:54AM 37.0928 -83.5211 69° East 488 562 33,000  Level Indianapolis Center
07:55AM 37.1397 -83.3614 70° East 486 559 33,000  Level Indianapolis Center
07:56AM 37.1889 -83.2011 69° East 486 559 33,000  Level Indianapolis Center
07:57AM 37.2367 -83.0422 69° East 483 556 33,000  Level Indianapolis Center
07:58AM 37.2839 -82.8797 70° East 489 563 33,000  Level Indianapolis Center
07:59AM 37.3378 -82.6928 70° East 485 558 33,000  Level Indianapolis Center
08:01AM 37.3856 -82.5319 69° East 487 560 33,000  Level Indianapolis Center
08:02AM 37.4317 -82.3708 70° East 488 562 33,000  Level Indianapolis Center
08:03AM 37.4778 -82.2117 70° East 484 557 33,000  Level Indianapolis Center
08:04AM 37.5231 -82.0506 70° East 487 560 33,000  Level Indianapolis Center
08:05AM 37.5681 -81.8894 71° East 487 560 33,000  Level Indianapolis Center
08:06AM 37.6131 -81.7308 70° East 482 555 33,000  Level Indianapolis Center
08:07AM 37.6578 -81.5708 71° East 482 555 33,000  Level Indianapolis Center
08:08AM 37.6972 -81.4242 71° East 480 552 33,000  Level Indianapolis Center
08:09AM 37.7481 -81.2394 71° East 477 549 33,000  Level Indianapolis Center
08:10AM 37.7925 -81.0883 70° East 472 543 33,000  Level Indianapolis Center
08:11AM 37.8389 -80.9564 66° East 474 545 33,000  Level Indianapolis Center
08:12AM 37.9036 -80.7719 66° East 478 550 33,000  Level Indianapolis Center
08:13AM 37.9578 -80.6192 66° East 478 550 33,000  Level Indianapolis Center
08:14AM 38.0150 -80.4592 66° East 479 551 33,000  Level Indianapolis Center
08:15AM 38.0628 -80.3364 64° Northeast 473 544 33,000  Level Washington Center
08:16AM 38.1119 -80.1944 66° East 478 550 33,000  Level Washington Center
08:17AM 38.1658 -80.0419 66° East 478 550 33,000  Level Washington Center
08:18AM 38.2217 -79.8867 65° Northeast 473 544 33,000 -540 Level Washington Center
08:19AM 38.2750 -79.7336 66° East 473 544 32,000 -1,320 Descending Washington Center
08:20AM 38.3350 -79.5597 66° East 473 544 30,400 -1,440 Descending Washington Center
08:21AM 38.3881 -79.4008 67° East 473 544 29,100 -1,200 Descending Washington Center
08:22AM 38.4369 -79.2364 69° East 479 551 28,100 -600 Descending Washington Center
08:23AM 38.4667 -79.0761 77° East 474 545 28,000 -60 Descending Washington Center
08:24AM 38.4922 -78.9181 78° East 469 540 28,000 -1,260 Level Washington Center
08:25AM 38.5128 -78.7731 80° East 463 533 25,500 -2,760 Descending Washington Center
08:26AM 38.5353 -78.6228 79° East 451 519 22,600 -1,920 Descending Washington Center
08:27AM 38.5597 -78.4778 78° East 434 499 21,600 -1,260 Descending Washington Center
08:28AM 38.5819 -78.3353 79° East 420 483 20,200 -1,680 Descending Washington Center
08:29AM 38.6142 -78.1956 74° East 409 471 18,300 -1,740 Descending Washington Center
08:30AM 38.6567 -78.0667 67° East 397 457 16,700 -1,800 Descending Washington Center
08:31AM 38.6944 -77.9403 69° East 386 444 14,700 -1,860 Descending Washington Center
08:32AM 38.7364 -77.8247 65° Northeast 368 423 13,000 -1,560 Descending Washington Center
08:33AM 38.7942 -77.7358 50° Northeast 342 394 11,600 -1,500 Descending Washington Center
08:34AM 38.8606 -77.6417 48° Northeast 322 371 10,100 -1,500 Descending Washington Center
08:35AM 38.9167 -77.5500 52° Northeast 309 356 8,700 -1,080 Descending Potomac TRACON
08:36AM 38.9667 -77.4667 52° Northeast 295 339 8,000 -600 Descending Potomac TRACON
08:37AM 39.0000 -77.4000 57° Northeast 241 277 7,500 -1,020 Descending Potomac TRACON
08:37AM 39.0167 -77.3333 72° East 219 252 6,100 -1,320 Descending Potomac TRACON
08:38AM 39.0167 -77.2500 90° East 216 249 5,000 -1,020 Descending Potomac TRACON
08:39AM 39.0000 -77.1833 108° East 200 230 4,200 -900 Descending Potomac TRACON